sensor_id;sensor_type;location;lat;lon;timestamp;P1;durP1;ratioP1;P2;durP2;ratioP2
65583;SDS011;62116;43.582;1.470;2023-02-25T00:02:06;14.18;;;8.15;;
65583;SDS011;62116;43.582;1.470;2023-02-25T00:04:32;13.75;;;8.02;;
65583;SDS011;62116;43.582;1.470;2023-02-25T00:06:57;11.85;;;8.27;;
65583;SDS011;62116;43.582;1.470;2023-02-25T00:09:23;13.27;;;7.88;;
65583;SDS011;62116;43.582;1.470;2023-02-25T00:11:48;15.45;;;9.30;;
65583;SDS011;62116;43.582;1.470;2023-02-25T00:14:14;17.05;;;9.32;;
65583;SDS011;62116;43.582;1.470;2023-02-25T00:16:39;13.15;;;8.55;;
65583;SDS011;62116;43.582;1.470;2023-02-25T00:19:04;11.93;;;7.28;;
65583;SDS011;62116;43.582;1.470;2023-02-25T00:21:30;12.80;;;8.15;;
65583;SDS011;62116;43.582;1.470;2023-02-25T00:23:56;11.55;;;7.47;;
65583;SDS011;62116;43.582;1.470;2023-02-25T00:26:21;12.05;;;8.23;;
65583;SDS011;62116;43.582;1.470;2023-02-25T00:28:47;11.82;;;7.63;;
65583;SDS011;62116;43.582;1.470;2023-02-25T00:31:14;11.25;;;7.60;;
65583;SDS011;62116;43.582;1.470;2023-02-25T00:33:41;13.60;;;8.63;;
65583;SDS011;62116;43.582;1.470;2023-02-25T00:36:11;16.58;;;10.52;;
65583;SDS011;62116;43.582;1.470;2023-02-25T00:38:38;13.65;;;8.75;;
65583;SDS011;62116;43.582;1.470;2023-02-25T00:41:05;14.57;;;8.73;;
65583;SDS011;62116;43.582;1.470;2023-02-25T00:43:42;14.00;;;8.55;;
65583;SDS011;62116;43.582;1.470;2023-02-25T00:48:35;12.55;;;7.32;;
65583;SDS011;62116;43.582;1.470;2023-02-25T00:51:20;13.52;;;8.10;;
65583;SDS011;62116;43.582;1.470;2023-02-25T00:53:56;13.95;;;7.43;;
65583;SDS011;62116;43.582;1.470;2023-02-25T00:56:23;11.90;;;7.55;;
65583;SDS011;62116;43.582;1.470;2023-02-25T00:58:50;11.38;;;7.40;;
65583;SDS011;62116;43.582;1.470;2023-02-25T01:03:53;14.13;;;7.72;;
65583;SDS011;62116;43.582;1.470;2023-02-25T01:06:21;12.00;;;6.88;;
65583;SDS011;62116;43.582;1.470;2023-02-25T01:08:47;12.55;;;7.78;;
65583;SDS011;62116;43.582;1.470;2023-02-25T01:11:18;11.93;;;7.55;;
65583;SDS011;62116;43.582;1.470;2023-02-25T01:13:52;12.10;;;7.20;;
65583;SDS011;62116;43.582;1.470;2023-02-25T01:16:21;12.93;;;7.38;;
65583;SDS011;62116;43.582;1.470;2023-02-25T01:21:22;9.77;;;6.20;;
65583;SDS011;62116;43.582;1.470;2023-02-25T01:23:52;12.10;;;6.75;;
65583;SDS011;62116;43.582;1.470;2023-02-25T01:26:22;14.35;;;7.47;;
65583;SDS011;62116;43.582;1.470;2023-02-25T01:28:49;12.77;;;7.40;;
65583;SDS011;62116;43.582;1.470;2023-02-25T01:31:15;10.80;;;7.13;;
65583;SDS011;62116;43.582;1.470;2023-02-25T01:33:42;11.68;;;6.78;;
65583;SDS011;62116;43.582;1.470;2023-02-25T01:36:08;11.88;;;7.13;;
65583;SDS011;62116;43.582;1.470;2023-02-25T01:38:34;10.95;;;7.20;;
65583;SDS011;62116;43.582;1.470;2023-02-25T01:41:00;13.02;;;7.28;;
65583;SDS011;62116;43.582;1.470;2023-02-25T01:43:26;11.30;;;6.82;;
65583;SDS011;62116;43.582;1.470;2023-02-25T01:45:52;10.38;;;7.03;;
65583;SDS011;62116;43.582;1.470;2023-02-25T01:48:19;14.38;;;6.82;;
65583;SDS011;62116;43.582;1.470;2023-02-25T01:53:14;11.15;;;6.72;;
65583;SDS011;62116;43.582;1.470;2023-02-25T01:55:44;12.82;;;7.28;;
65583;SDS011;62116;43.582;1.470;2023-02-25T01:58:10;10.80;;;7.32;;
65583;SDS011;62116;43.582;1.470;2023-02-25T02:00:37;11.63;;;7.20;;
65583;SDS011;62116;43.582;1.470;2023-02-25T02:03:03;13.63;;;7.68;;
65583;SDS011;62116;43.582;1.470;2023-02-25T02:05:36;12.30;;;7.30;;
65583;SDS011;62116;43.582;1.470;2023-02-25T02:08:10;12.05;;;7.32;;
65583;SDS011;62116;43.582;1.470;2023-02-25T02:10:36;12.55;;;7.50;;
65583;SDS011;62116;43.582;1.470;2023-02-25T02:13:01;11.85;;;7.65;;
65583;SDS011;62116;43.582;1.470;2023-02-25T02:15:27;12.10;;;6.97;;
65583;SDS011;62116;43.582;1.470;2023-02-25T02:28:42;32.38;;;13.18;;
65583;SDS011;62116;43.582;1.470;2023-02-25T02:34:27;16.63;;;8.23;;
65583;SDS011;62116;43.582;1.470;2023-02-25T02:45:23;15.35;;;7.22;;
65583;SDS011;62116;43.582;1.470;2023-02-25T02:50:47;13.00;;;7.57;;
65583;SDS011;62116;43.582;1.470;2023-02-25T02:53:20;13.10;;;7.20;;
65583;SDS011;62116;43.582;1.470;2023-02-25T02:55:51;11.05;;;6.75;;
65583;SDS011;62116;43.582;1.470;2023-02-25T02:58:29;12.40;;;7.40;;
65583;SDS011;62116;43.582;1.470;2023-02-25T03:01:19;11.40;;;7.40;;
65583;SDS011;62116;43.582;1.470;2023-02-25T03:03:51;11.48;;;7.05;;
65583;SDS011;62116;43.582;1.470;2023-02-25T03:06:24;12.20;;;6.97;;
65583;SDS011;62116;43.582;1.470;2023-02-25T03:08:54;13.67;;;7.13;;
65583;SDS011;62116;43.582;1.470;2023-02-25T03:11:26;14.52;;;7.32;;
65583;SDS011;62116;43.582;1.470;2023-02-25T03:13:51;12.77;;;7.32;;
65583;SDS011;62116;43.582;1.470;2023-02-25T03:16:19;18.05;;;9.50;;
65583;SDS011;62116;43.582;1.470;2023-02-25T03:18:52;21.10;;;11.38;;
65583;SDS011;62116;43.582;1.470;2023-02-25T03:21:40;17.55;;;10.43;;
65583;SDS011;62116;43.582;1.470;2023-02-25T03:24:09;17.58;;;9.85;;
65583;SDS011;62116;43.582;1.470;2023-02-25T03:26:46;14.95;;;8.60;;
65583;SDS011;62116;43.582;1.470;2023-02-25T03:29:14;14.32;;;8.18;;
65583;SDS011;62116;43.582;1.470;2023-02-25T03:31:46;13.10;;;7.82;;
65583;SDS011;62116;43.582;1.470;2023-02-25T03:34:20;15.30;;;8.35;;
65583;SDS011;62116;43.582;1.470;2023-02-25T03:36:56;14.48;;;8.32;;
65583;SDS011;62116;43.582;1.470;2023-02-25T03:39:28;14.75;;;8.73;;
65583;SDS011;62116;43.582;1.470;2023-02-25T03:41:57;14.05;;;8.00;;
65583;SDS011;62116;43.582;1.470;2023-02-25T03:44:27;14.02;;;7.80;;
65583;SDS011;62116;43.582;1.470;2023-02-25T03:46:56;14.10;;;7.75;;
65583;SDS011;62116;43.582;1.470;2023-02-25T03:49:29;13.48;;;7.40;;
65583;SDS011;62116;43.582;1.470;2023-02-25T03:52:05;14.20;;;8.00;;
65583;SDS011;62116;43.582;1.470;2023-02-25T03:54:35;12.80;;;7.32;;
65583;SDS011;62116;43.582;1.470;2023-02-25T03:57:01;13.80;;;7.68;;
65583;SDS011;62116;43.582;1.470;2023-02-25T03:59:26;13.90;;;7.80;;
65583;SDS011;62116;43.582;1.470;2023-02-25T04:01:52;14.32;;;7.72;;
65583;SDS011;62116;43.582;1.470;2023-02-25T04:04:20;16.08;;;7.65;;
65583;SDS011;62116;43.582;1.470;2023-02-25T04:06:45;15.13;;;8.05;;
65583;SDS011;62116;43.582;1.470;2023-02-25T04:09:11;13.32;;;7.60;;
65583;SDS011;62116;43.582;1.470;2023-02-25T04:11:37;13.27;;;7.55;;
65583;SDS011;62116;43.582;1.470;2023-02-25T04:14:02;13.23;;;7.82;;
65583;SDS011;62116;43.582;1.470;2023-02-25T04:16:28;15.57;;;8.25;;
65583;SDS011;62116;43.582;1.470;2023-02-25T04:18:54;15.65;;;7.82;;
65583;SDS011;62116;43.582;1.470;2023-02-25T04:21:26;15.48;;;7.40;;
65583;SDS011;62116;43.582;1.470;2023-02-25T04:23:57;13.80;;;7.75;;
65583;SDS011;62116;43.582;1.470;2023-02-25T04:26:23;12.38;;;7.43;;
65583;SDS011;62116;43.582;1.470;2023-02-25T04:28:48;12.63;;;7.13;;
65583;SDS011;62116;43.582;1.470;2023-02-25T04:31:14;11.85;;;7.70;;
65583;SDS011;62116;43.582;1.470;2023-02-25T04:33:39;12.05;;;7.57;;
65583;SDS011;62116;43.582;1.470;2023-02-25T04:36:05;12.68;;;8.05;;
65583;SDS011;62116;43.582;1.470;2023-02-25T04:38:45;13.57;;;7.85;;
65583;SDS011;62116;43.582;1.470;2023-02-25T04:41:10;12.43;;;7.68;;
65583;SDS011;62116;43.582;1.470;2023-02-25T04:43:35;12.73;;;7.20;;
65583;SDS011;62116;43.582;1.470;2023-02-25T04:46:01;13.63;;;7.53;;
65583;SDS011;62116;43.582;1.470;2023-02-25T04:48:26;12.48;;;7.03;;
65583;SDS011;62116;43.582;1.470;2023-02-25T04:50:52;11.45;;;7.32;;
65583;SDS011;62116;43.582;1.470;2023-02-25T04:53:17;13.25;;;7.57;;
65583;SDS011;62116;43.582;1.470;2023-02-25T04:55:42;11.95;;;6.80;;
65583;SDS011;62116;43.582;1.470;2023-02-25T04:58:08;11.85;;;6.50;;
65583;SDS011;62116;43.582;1.470;2023-02-25T05:00:33;10.68;;;6.68;;
65583;SDS011;62116;43.582;1.470;2023-02-25T05:02:59;13.15;;;7.00;;
65583;SDS011;62116;43.582;1.470;2023-02-25T05:05:24;11.25;;;7.00;;
65583;SDS011;62116;43.582;1.470;2023-02-25T05:07:49;11.65;;;7.10;;
65583;SDS011;62116;43.582;1.470;2023-02-25T05:10:15;11.95;;;6.80;;
65583;SDS011;62116;43.582;1.470;2023-02-25T05:12:40;11.18;;;6.78;;
65583;SDS011;62116;43.582;1.470;2023-02-25T05:15:06;9.75;;;6.45;;
65583;SDS011;62116;43.582;1.470;2023-02-25T05:17:33;10.20;;;6.75;;
65583;SDS011;62116;43.582;1.470;2023-02-25T05:20:00;11.70;;;6.90;;
65583;SDS011;62116;43.582;1.470;2023-02-25T05:22:25;10.25;;;6.70;;
65583;SDS011;62116;43.582;1.470;2023-02-25T05:24:51;10.63;;;5.90;;
65583;SDS011;62116;43.582;1.470;2023-02-25T05:27:17;10.90;;;6.75;;
65583;SDS011;62116;43.582;1.470;2023-02-25T05:29:42;10.43;;;6.50;;
65583;SDS011;62116;43.582;1.470;2023-02-25T05:32:08;10.95;;;7.18;;
65583;SDS011;62116;43.582;1.470;2023-02-25T05:34:33;10.98;;;6.85;;
65583;SDS011;62116;43.582;1.470;2023-02-25T05:36:59;9.90;;;6.35;;
65583;SDS011;62116;43.582;1.470;2023-02-25T05:39:25;11.25;;;6.97;;
65583;SDS011;62116;43.582;1.470;2023-02-25T05:41:50;10.02;;;6.53;;
65583;SDS011;62116;43.582;1.470;2023-02-25T05:44:16;10.68;;;6.60;;
65583;SDS011;62116;43.582;1.470;2023-02-25T05:46:42;13.13;;;7.30;;
65583;SDS011;62116;43.582;1.470;2023-02-25T05:49:07;11.60;;;7.35;;
65583;SDS011;62116;43.582;1.470;2023-02-25T05:51:34;11.00;;;6.97;;
65583;SDS011;62116;43.582;1.470;2023-02-25T05:54:00;12.25;;;6.90;;
65583;SDS011;62116;43.582;1.470;2023-02-25T05:56:26;12.02;;;7.03;;
65583;SDS011;62116;43.582;1.470;2023-02-25T05:58:52;12.48;;;6.95;;
65583;SDS011;62116;43.582;1.470;2023-02-25T06:01:20;12.68;;;6.88;;
65583;SDS011;62116;43.582;1.470;2023-02-25T06:03:48;11.68;;;7.10;;
65583;SDS011;62116;43.582;1.470;2023-02-25T06:06:16;10.98;;;6.60;;
65583;SDS011;62116;43.582;1.470;2023-02-25T06:08:46;16.50;;;7.13;;
65583;SDS011;62116;43.582;1.470;2023-02-25T06:11:16;13.73;;;7.38;;
65583;SDS011;62116;43.582;1.470;2023-02-25T06:13:45;13.35;;;7.82;;
65583;SDS011;62116;43.582;1.470;2023-02-25T06:16:12;11.57;;;7.05;;
65583;SDS011;62116;43.582;1.470;2023-02-25T06:18:38;11.88;;;7.00;;
65583;SDS011;62116;43.582;1.470;2023-02-25T06:21:08;12.63;;;7.05;;
65583;SDS011;62116;43.582;1.470;2023-02-25T06:23:38;11.88;;;7.07;;
65583;SDS011;62116;43.582;1.470;2023-02-25T06:26:06;11.38;;;6.93;;
65583;SDS011;62116;43.582;1.470;2023-02-25T06:28:33;10.90;;;6.72;;
65583;SDS011;62116;43.582;1.470;2023-02-25T06:30:59;11.32;;;7.00;;
65583;SDS011;62116;43.582;1.470;2023-02-25T06:33:25;11.55;;;7.25;;
65583;SDS011;62116;43.582;1.470;2023-02-25T06:35:50;11.25;;;6.85;;
65583;SDS011;62116;43.582;1.470;2023-02-25T06:38:17;11.25;;;6.47;;
65583;SDS011;62116;43.582;1.470;2023-02-25T06:40:42;13.02;;;7.03;;
65583;SDS011;62116;43.582;1.470;2023-02-25T06:43:08;10.93;;;6.90;;
65583;SDS011;62116;43.582;1.470;2023-02-25T06:45:34;12.25;;;7.30;;
65583;SDS011;62116;43.582;1.470;2023-02-25T06:48:00;12.35;;;6.88;;
65583;SDS011;62116;43.582;1.470;2023-02-25T06:50:25;12.73;;;7.13;;
65583;SDS011;62116;43.582;1.470;2023-02-25T06:52:51;13.73;;;7.07;;
65583;SDS011;62116;43.582;1.470;2023-02-25T06:55:16;13.43;;;7.18;;
65583;SDS011;62116;43.582;1.470;2023-02-25T06:57:41;13.30;;;7.50;;
65583;SDS011;62116;43.582;1.470;2023-02-25T07:00:07;11.95;;;7.22;;
65583;SDS011;62116;43.582;1.470;2023-02-25T07:02:33;14.05;;;8.00;;
65583;SDS011;62116;43.582;1.470;2023-02-25T07:04:59;13.27;;;7.57;;
65583;SDS011;62116;43.582;1.470;2023-02-25T07:07:26;12.30;;;7.78;;
65583;SDS011;62116;43.582;1.470;2023-02-25T07:09:52;11.73;;;7.55;;
65583;SDS011;62116;43.582;1.470;2023-02-25T07:12:18;12.52;;;7.78;;
65583;SDS011;62116;43.582;1.470;2023-02-25T07:14:43;14.75;;;8.32;;
65583;SDS011;62116;43.582;1.470;2023-02-25T07:17:09;14.48;;;8.00;;
65583;SDS011;62116;43.582;1.470;2023-02-25T07:19:34;15.60;;;8.45;;
65583;SDS011;62116;43.582;1.470;2023-02-25T07:22:00;13.80;;;8.15;;
65583;SDS011;62116;43.582;1.470;2023-02-25T07:24:25;14.30;;;8.52;;
65583;SDS011;62116;43.582;1.470;2023-02-25T07:26:51;13.32;;;7.80;;
65583;SDS011;62116;43.582;1.470;2023-02-25T07:29:19;14.15;;;7.80;;
65583;SDS011;62116;43.582;1.470;2023-02-25T07:31:44;14.55;;;8.57;;
65583;SDS011;62116;43.582;1.470;2023-02-25T07:34:10;15.82;;;8.35;;
65583;SDS011;62116;43.582;1.470;2023-02-25T07:36:36;20.40;;;8.68;;
65583;SDS011;62116;43.582;1.470;2023-02-25T07:39:06;15.43;;;8.88;;
65583;SDS011;62116;43.582;1.470;2023-02-25T07:43:58;17.85;;;9.75;;
65583;SDS011;62116;43.582;1.470;2023-02-25T07:46:24;17.23;;;9.60;;
65583;SDS011;62116;43.582;1.470;2023-02-25T07:48:50;16.90;;;9.45;;
65583;SDS011;62116;43.582;1.470;2023-02-25T07:51:17;17.23;;;9.48;;
65583;SDS011;62116;43.582;1.470;2023-02-25T07:53:45;16.23;;;8.82;;
65583;SDS011;62116;43.582;1.470;2023-02-25T07:56:11;18.08;;;9.13;;
65583;SDS011;62116;43.582;1.470;2023-02-25T07:58:37;18.23;;;8.10;;
65583;SDS011;62116;43.582;1.470;2023-02-25T08:01:09;13.80;;;7.88;;
65583;SDS011;62116;43.582;1.470;2023-02-25T08:03:43;14.27;;;8.40;;
65583;SDS011;62116;43.582;1.470;2023-02-25T08:06:12;16.23;;;9.02;;
65583;SDS011;62116;43.582;1.470;2023-02-25T08:08:38;14.90;;;8.25;;
65583;SDS011;62116;43.582;1.470;2023-02-25T08:11:07;13.63;;;8.52;;
65583;SDS011;62116;43.582;1.470;2023-02-25T08:13:33;16.48;;;8.88;;
65583;SDS011;62116;43.582;1.470;2023-02-25T08:15:59;15.00;;;8.45;;
65583;SDS011;62116;43.582;1.470;2023-02-25T08:18:28;12.63;;;7.63;;
65583;SDS011;62116;43.582;1.470;2023-02-25T08:20:53;13.93;;;8.35;;
65583;SDS011;62116;43.582;1.470;2023-02-25T08:23:20;14.82;;;8.93;;
65583;SDS011;62116;43.582;1.470;2023-02-25T08:25:45;15.88;;;8.70;;
65583;SDS011;62116;43.582;1.470;2023-02-25T08:28:10;15.95;;;8.73;;
65583;SDS011;62116;43.582;1.470;2023-02-25T08:30:38;13.25;;;8.27;;
65583;SDS011;62116;43.582;1.470;2023-02-25T08:33:04;14.18;;;8.27;;
65583;SDS011;62116;43.582;1.470;2023-02-25T08:35:29;18.58;;;9.48;;
65583;SDS011;62116;43.582;1.470;2023-02-25T08:37:55;17.63;;;9.52;;
65583;SDS011;62116;43.582;1.470;2023-02-25T08:40:21;15.95;;;9.27;;
65583;SDS011;62116;43.582;1.470;2023-02-25T08:42:47;19.60;;;9.77;;
65583;SDS011;62116;43.582;1.470;2023-02-25T08:45:12;16.77;;;9.40;;
65583;SDS011;62116;43.582;1.470;2023-02-25T08:47:38;14.32;;;8.80;;
65583;SDS011;62116;43.582;1.470;2023-02-25T08:50:03;18.50;;;9.95;;
65583;SDS011;62116;43.582;1.470;2023-02-25T08:52:29;17.27;;;9.73;;
65583;SDS011;62116;43.582;1.470;2023-02-25T08:55:06;16.42;;;9.80;;
65583;SDS011;62116;43.582;1.470;2023-02-25T08:57:32;16.88;;;10.25;;
65583;SDS011;62116;43.582;1.470;2023-02-25T08:59:57;16.08;;;10.20;;
65583;SDS011;62116;43.582;1.470;2023-02-25T09:02:23;18.67;;;11.32;;
65583;SDS011;62116;43.582;1.470;2023-02-25T09:04:48;24.77;;;14.00;;
65583;SDS011;62116;43.582;1.470;2023-02-25T09:07:15;19.80;;;10.77;;
65583;SDS011;62116;43.582;1.470;2023-02-25T09:09:41;18.85;;;11.20;;
65583;SDS011;62116;43.582;1.470;2023-02-25T09:12:07;18.75;;;10.70;;
65583;SDS011;62116;43.582;1.470;2023-02-25T09:14:33;17.02;;;10.23;;
65583;SDS011;62116;43.582;1.470;2023-02-25T09:17:02;15.98;;;10.70;;
65583;SDS011;62116;43.582;1.470;2023-02-25T09:19:29;15.00;;;9.85;;
65583;SDS011;62116;43.582;1.470;2023-02-25T09:21:56;17.20;;;9.75;;
65583;SDS011;62116;43.582;1.470;2023-02-25T09:24:21;15.30;;;10.07;;
65583;SDS011;62116;43.582;1.470;2023-02-25T09:26:47;15.18;;;9.80;;
65583;SDS011;62116;43.582;1.470;2023-02-25T09:29:12;15.38;;;9.98;;
65583;SDS011;62116;43.582;1.470;2023-02-25T09:31:38;13.85;;;9.50;;
65583;SDS011;62116;43.582;1.470;2023-02-25T09:34:04;17.52;;;10.27;;
65583;SDS011;62116;43.582;1.470;2023-02-25T09:36:33;16.08;;;9.98;;
65583;SDS011;62116;43.582;1.470;2023-02-25T09:38:58;14.48;;;9.63;;
65583;SDS011;62116;43.582;1.470;2023-02-25T09:47:25;14.88;;;9.88;;
65583;SDS011;62116;43.582;1.470;2023-02-25T09:49:59;16.40;;;9.07;;
65583;SDS011;62116;43.582;1.470;2023-02-25T09:52:52;14.82;;;9.20;;
65583;SDS011;62116;43.582;1.470;2023-02-25T09:55:31;14.57;;;8.93;;
65583;SDS011;62116;43.582;1.470;2023-02-25T10:01:15;14.13;;;8.88;;
65583;SDS011;62116;43.582;1.470;2023-02-25T10:09:20;13.27;;;9.05;;
65583;SDS011;62116;43.582;1.470;2023-02-25T10:17:23;12.30;;;8.48;;
65583;SDS011;62116;43.582;1.470;2023-02-25T10:23:08;12.50;;;8.45;;
65583;SDS011;62116;43.582;1.470;2023-02-25T10:25:39;16.30;;;10.20;;
65583;SDS011;62116;43.582;1.470;2023-02-25T10:28:11;14.10;;;8.90;;
65583;SDS011;62116;43.582;1.470;2023-02-25T10:33:22;17.85;;;9.38;;
65583;SDS011;62116;43.582;1.470;2023-02-25T10:35:56;22.77;;;11.20;;
65583;SDS011;62116;43.582;1.470;2023-02-25T10:38:24;16.05;;;9.68;;
65583;SDS011;62116;43.582;1.470;2023-02-25T10:40:50;15.23;;;9.57;;
65583;SDS011;62116;43.582;1.470;2023-02-25T10:43:19;12.52;;;8.10;;
65583;SDS011;62116;43.582;1.470;2023-02-25T10:45:48;13.65;;;8.93;;
65583;SDS011;62116;43.582;1.470;2023-02-25T10:48:22;13.85;;;8.70;;
65583;SDS011;62116;43.582;1.470;2023-02-25T10:51:03;12.23;;;8.30;;
65583;SDS011;62116;43.582;1.470;2023-02-25T10:53:39;15.98;;;9.02;;
65583;SDS011;62116;43.582;1.470;2023-02-25T10:56:27;14.35;;;8.82;;
65583;SDS011;62116;43.582;1.470;2023-02-25T10:59:05;14.93;;;9.63;;
65583;SDS011;62116;43.582;1.470;2023-02-25T11:01:51;14.90;;;9.52;;
65583;SDS011;62116;43.582;1.470;2023-02-25T11:04:22;13.77;;;9.38;;
65583;SDS011;62116;43.582;1.470;2023-02-25T11:06:52;15.35;;;9.13;;
65583;SDS011;62116;43.582;1.470;2023-02-25T11:14:24;12.32;;;8.15;;
65583;SDS011;62116;43.582;1.470;2023-02-25T11:19:42;10.80;;;5.88;;
65583;SDS011;62116;43.582;1.470;2023-02-25T11:22:20;8.90;;;6.18;;
65583;SDS011;62116;43.582;1.470;2023-02-25T11:24:54;8.70;;;5.93;;
65583;SDS011;62116;43.582;1.470;2023-02-25T11:27:34;8.93;;;5.60;;
65583;SDS011;62116;43.582;1.470;2023-02-25T11:32:39;8.57;;;5.18;;
65583;SDS011;62116;43.582;1.470;2023-02-25T11:35:15;7.45;;;5.07;;
65583;SDS011;62116;43.582;1.470;2023-02-25T11:37:43;6.80;;;4.70;;
65583;SDS011;62116;43.582;1.470;2023-02-25T11:40:19;7.38;;;4.53;;
65583;SDS011;62116;43.582;1.470;2023-02-25T11:45:26;6.68;;;4.45;;
65583;SDS011;62116;43.582;1.470;2023-02-25T11:47:53;7.03;;;4.60;;
65583;SDS011;62116;43.582;1.470;2023-02-25T12:04:03;6.90;;;4.55;;
65583;SDS011;62116;43.582;1.470;2023-02-25T12:18:08;5.18;;;3.40;;
65583;SDS011;62116;43.582;1.470;2023-02-25T12:32:00;6.38;;;3.50;;
65583;SDS011;62116;43.582;1.470;2023-02-25T12:34:58;5.18;;;3.30;;
65583;SDS011;62116;43.582;1.470;2023-02-25T13:02:17;6.45;;;3.35;;
65583;SDS011;62116;43.582;1.470;2023-02-25T13:12:47;6.30;;;3.80;;
65583;SDS011;62116;43.582;1.470;2023-02-25T13:24:13;6.15;;;3.78;;
65583;SDS011;62116;43.582;1.470;2023-02-25T13:29:57;9.40;;;5.28;;
65583;SDS011;62116;43.582;1.470;2023-02-25T13:32:51;11.47;;;5.30;;
65583;SDS011;62116;43.582;1.470;2023-02-25T13:41:07;6.63;;;4.03;;
65583;SDS011;62116;43.582;1.470;2023-02-25T13:46:50;4.95;;;3.63;;
65583;SDS011;62116;43.582;1.470;2023-02-25T13:49:27;5.88;;;3.92;;
65583;SDS011;62116;43.582;1.470;2023-02-25T13:52:12;7.03;;;3.45;;
65583;SDS011;62116;43.582;1.470;2023-02-25T14:08:59;5.80;;;3.97;;
65583;SDS011;62116;43.582;1.470;2023-02-25T14:14:26;6.22;;;4.07;;
65583;SDS011;62116;43.582;1.470;2023-02-25T14:17:14;5.15;;;3.70;;
65583;SDS011;62116;43.582;1.470;2023-02-25T14:25:16;6.28;;;3.92;;
65583;SDS011;62116;43.582;1.470;2023-02-25T14:27:48;6.60;;;4.07;;
65583;SDS011;62116;43.582;1.470;2023-02-25T14:44:38;5.93;;;3.80;;
65583;SDS011;62116;43.582;1.470;2023-02-25T14:47:10;6.45;;;3.90;;
65583;SDS011;62116;43.582;1.470;2023-02-25T14:49:56;8.38;;;3.83;;
65583;SDS011;62116;43.582;1.470;2023-02-25T14:53:15;6.53;;;3.90;;
65583;SDS011;62116;43.582;1.470;2023-02-25T15:04:42;5.47;;;3.40;;
65583;SDS011;62116;43.582;1.470;2023-02-25T15:10:41;9.32;;;3.22;;
65583;SDS011;62116;43.582;1.470;2023-02-25T15:21:45;5.43;;;3.22;;
65583;SDS011;62116;43.582;1.470;2023-02-25T15:27:01;7.05;;;2.90;;
65583;SDS011;62116;43.582;1.470;2023-02-25T15:29:47;5.07;;;3.10;;
65583;SDS011;62116;43.582;1.470;2023-02-25T15:32:22;5.03;;;3.03;;
65583;SDS011;62116;43.582;1.470;2023-02-25T15:37:25;4.20;;;2.72;;
65583;SDS011;62116;43.582;1.470;2023-02-25T15:40:39;5.97;;;3.15;;
65583;SDS011;62116;43.582;1.470;2023-02-25T15:55:49;7.60;;;3.35;;
65583;SDS011;62116;43.582;1.470;2023-02-25T15:58:54;5.97;;;3.50;;
65583;SDS011;62116;43.582;1.470;2023-02-25T16:01:26;5.78;;;4.00;;
65583;SDS011;62116;43.582;1.470;2023-02-25T16:03:53;6.00;;;3.78;;
65583;SDS011;62116;43.582;1.470;2023-02-25T16:06:19;5.45;;;3.63;;
65583;SDS011;62116;43.582;1.470;2023-02-25T16:13:58;6.38;;;3.55;;
65583;SDS011;62116;43.582;1.470;2023-02-25T16:16:26;4.78;;;3.08;;
65583;SDS011;62116;43.582;1.470;2023-02-25T16:18:54;6.75;;;3.85;;
65583;SDS011;62116;43.582;1.470;2023-02-25T16:21:25;5.63;;;3.30;;
65583;SDS011;62116;43.582;1.470;2023-02-25T16:24:08;4.25;;;2.60;;
65583;SDS011;62116;43.582;1.470;2023-02-25T16:34:45;3.67;;;2.17;;
65583;SDS011;62116;43.582;1.470;2023-02-25T16:37:42;4.57;;;2.42;;
65583;SDS011;62116;43.582;1.470;2023-02-25T16:40:19;4.75;;;2.47;;
65583;SDS011;62116;43.582;1.470;2023-02-25T16:42:46;3.80;;;2.35;;
65583;SDS011;62116;43.582;1.470;2023-02-25T16:45:20;4.53;;;2.22;;
65583;SDS011;62116;43.582;1.470;2023-02-25T16:47:52;4.38;;;2.22;;
65583;SDS011;62116;43.582;1.470;2023-02-25T16:50:21;4.63;;;2.50;;
65583;SDS011;62116;43.582;1.470;2023-02-25T16:52:49;4.53;;;2.70;;
65583;SDS011;62116;43.582;1.470;2023-02-25T16:55:16;5.07;;;2.80;;
65583;SDS011;62116;43.582;1.470;2023-02-25T16:58:01;4.10;;;2.53;;
65583;SDS011;62116;43.582;1.470;2023-02-25T17:00:32;4.47;;;2.53;;
65583;SDS011;62116;43.582;1.470;2023-02-25T17:03:00;5.32;;;2.65;;
65583;SDS011;62116;43.582;1.470;2023-02-25T17:07:58;6.22;;;3.05;;
65583;SDS011;62116;43.582;1.470;2023-02-25T17:10:28;5.85;;;2.60;;
65583;SDS011;62116;43.582;1.470;2023-02-25T17:13:09;4.40;;;2.78;;
65583;SDS011;62116;43.582;1.470;2023-02-25T17:15:40;3.80;;;2.42;;
65583;SDS011;62116;43.582;1.470;2023-02-25T17:20:58;4.82;;;2.55;;
65583;SDS011;62116;43.582;1.470;2023-02-25T17:23:29;4.68;;;2.92;;
65583;SDS011;62116;43.582;1.470;2023-02-25T17:26:01;8.13;;;2.97;;
65583;SDS011;62116;43.582;1.470;2023-02-25T17:28:27;5.05;;;2.60;;
65583;SDS011;62116;43.582;1.470;2023-02-25T17:31:05;4.95;;;2.67;;
65583;SDS011;62116;43.582;1.470;2023-02-25T17:33:33;6.15;;;3.10;;
65583;SDS011;62116;43.582;1.470;2023-02-25T17:36:08;4.88;;;3.03;;
65583;SDS011;62116;43.582;1.470;2023-02-25T17:38:37;6.07;;;3.10;;
65583;SDS011;62116;43.582;1.470;2023-02-25T17:41:05;6.93;;;3.47;;
65583;SDS011;62116;43.582;1.470;2023-02-25T17:43:33;5.72;;;3.60;;
65583;SDS011;62116;43.582;1.470;2023-02-25T17:45:59;6.22;;;3.72;;
65583;SDS011;62116;43.582;1.470;2023-02-25T17:48:28;6.63;;;3.72;;
65583;SDS011;62116;43.582;1.470;2023-02-25T17:56:07;8.43;;;4.15;;
65583;SDS011;62116;43.582;1.470;2023-02-25T17:58:34;7.35;;;4.10;;
65583;SDS011;62116;43.582;1.470;2023-02-25T18:01:00;6.28;;;3.90;;
65583;SDS011;62116;43.582;1.470;2023-02-25T18:03:27;6.18;;;3.78;;
65583;SDS011;62116;43.582;1.470;2023-02-25T18:05:58;7.22;;;3.97;;
65583;SDS011;62116;43.582;1.470;2023-02-25T18:08:29;6.60;;;4.13;;
65583;SDS011;62116;43.582;1.470;2023-02-25T18:13:27;7.65;;;4.75;;
65583;SDS011;62116;43.582;1.470;2023-02-25T18:16:15;6.45;;;4.30;;
65583;SDS011;62116;43.582;1.470;2023-02-25T18:18:54;8.30;;;5.10;;
65583;SDS011;62116;43.582;1.470;2023-02-25T18:21:21;7.65;;;5.20;;
65583;SDS011;62116;43.582;1.470;2023-02-25T18:23:50;7.57;;;4.75;;
65583;SDS011;62116;43.582;1.470;2023-02-25T18:28:49;8.25;;;4.80;;
65583;SDS011;62116;43.582;1.470;2023-02-25T18:31:19;8.35;;;4.75;;
65583;SDS011;62116;43.582;1.470;2023-02-25T18:33:45;8.02;;;5.22;;
65583;SDS011;62116;43.582;1.470;2023-02-25T18:36:15;11.93;;;4.97;;
65583;SDS011;62116;43.582;1.470;2023-02-25T18:41:18;7.47;;;4.40;;
65583;SDS011;62116;43.582;1.470;2023-02-25T18:43:44;9.82;;;5.00;;
65583;SDS011;62116;43.582;1.470;2023-02-25T18:46:09;9.95;;;5.00;;
65583;SDS011;62116;43.582;1.470;2023-02-25T18:48:36;10.35;;;5.25;;
65583;SDS011;62116;43.582;1.470;2023-02-25T18:51:02;10.30;;;5.20;;
65583;SDS011;62116;43.582;1.470;2023-02-25T18:53:29;9.85;;;5.82;;
65583;SDS011;62116;43.582;1.470;2023-02-25T18:55:56;13.07;;;8.73;;
65583;SDS011;62116;43.582;1.470;2023-02-25T18:58:22;15.15;;;10.98;;
65583;SDS011;62116;43.582;1.470;2023-02-25T19:00:55;17.00;;;12.50;;
65583;SDS011;62116;43.582;1.470;2023-02-25T19:03:29;19.45;;;14.10;;
65583;SDS011;62116;43.582;1.470;2023-02-25T19:05:58;20.80;;;14.30;;
65583;SDS011;62116;43.582;1.470;2023-02-25T19:08:24;19.02;;;13.75;;
65583;SDS011;62116;43.582;1.470;2023-02-25T19:10:50;18.48;;;12.82;;
65583;SDS011;62116;43.582;1.470;2023-02-25T19:13:18;18.52;;;11.40;;
65583;SDS011;62116;43.582;1.470;2023-02-25T19:15:47;16.38;;;10.77;;
65583;SDS011;62116;43.582;1.470;2023-02-25T19:18:14;15.25;;;9.05;;
65583;SDS011;62116;43.582;1.470;2023-02-25T19:20:40;15.60;;;9.30;;
65583;SDS011;62116;43.582;1.470;2023-02-25T19:23:08;13.07;;;8.23;;
65583;SDS011;62116;43.582;1.470;2023-02-25T19:25:35;13.13;;;8.07;;
65583;SDS011;62116;43.582;1.470;2023-02-25T19:28:03;12.82;;;7.40;;